sensor_id;sensor_type;location;lat;lon;timestamp;P1;durP1;ratioP1;P2;durP2;ratioP2
59052;SDS011;44843;44.728;10.396;2023-07-31T00:01:14;6.15;;;4.47;;
59052;SDS011;44843;44.728;10.396;2023-07-31T00:03:39;5.97;;;4.22;;
59052;SDS011;44843;44.728;10.396;2023-07-31T00:06:05;9.45;;;4.40;;
59052;SDS011;44843;44.728;10.396;2023-07-31T00:08:30;5.53;;;4.43;;
59052;SDS011;44843;44.728;10.396;2023-07-31T00:10:56;9.73;;;4.60;;
59052;SDS011;44843;44.728;10.396;2023-07-31T00:13:21;4.95;;;4.05;;
59052;SDS011;44843;44.728;10.396;2023-07-31T00:15:46;6.20;;;4.55;;
59052;SDS011;44843;44.728;10.396;2023-07-31T00:18:12;8.48;;;4.78;;
59052;SDS011;44843;44.728;10.396;2023-07-31T00:20:38;11.98;;;5.50;;
59052;SDS011;44843;44.728;10.396;2023-07-31T00:23:03;7.10;;;4.85;;
59052;SDS011;44843;44.728;10.396;2023-07-31T00:25:28;8.15;;;5.63;;
59052;SDS011;44843;44.728;10.396;2023-07-31T00:27:54;7.28;;;4.53;;
59052;SDS011;44843;44.728;10.396;2023-07-31T00:30:19;11.05;;;5.07;;
59052;SDS011;44843;44.728;10.396;2023-07-31T00:32:44;10.27;;;4.88;;
59052;SDS011;44843;44.728;10.396;2023-07-31T00:35:10;5.53;;;4.13;;
59052;SDS011;44843;44.728;10.396;2023-07-31T00:37:35;5.10;;;4.18;;
59052;SDS011;44843;44.728;10.396;2023-07-31T00:40:00;5.95;;;4.30;;
59052;SDS011;44843;44.728;10.396;2023-07-31T00:42:28;5.68;;;4.32;;
59052;SDS011;44843;44.728;10.396;2023-07-31T00:44:53;8.77;;;4.28;;
59052;SDS011;44843;44.728;10.396;2023-07-31T00:47:19;6.70;;;3.80;;
59052;SDS011;44843;44.728;10.396;2023-07-31T00:49:44;4.68;;;4.13;;
59052;SDS011;44843;44.728;10.396;2023-07-31T00:52:10;5.88;;;3.85;;
59052;SDS011;44843;44.728;10.396;2023-07-31T00:54:36;6.20;;;3.92;;
59052;SDS011;44843;44.728;10.396;2023-07-31T00:57:02;6.15;;;3.75;;
59052;SDS011;44843;44.728;10.396;2023-07-31T00:59:27;4.60;;;3.17;;
59052;SDS011;44843;44.728;10.396;2023-07-31T01:01:53;5.38;;;3.80;;
59052;SDS011;44843;44.728;10.396;2023-07-31T01:04:18;5.13;;;4.00;;
59052;SDS011;44843;44.728;10.396;2023-07-31T01:09:29;3.67;;;2.90;;
59052;SDS011;44843;44.728;10.396;2023-07-31T01:12:15;4.53;;;2.78;;
59052;SDS011;44843;44.728;10.396;2023-07-31T01:17:26;3.58;;;2.67;;
59052;SDS011;44843;44.728;10.396;2023-07-31T01:19:51;5.57;;;2.90;;
59052;SDS011;44843;44.728;10.396;2023-07-31T01:28:02;4.43;;;2.85;;
59052;SDS011;44843;44.728;10.396;2023-07-31T01:30:34;6.28;;;3.00;;
59052;SDS011;44843;44.728;10.396;2023-07-31T01:33:06;5.13;;;3.00;;
59052;SDS011;44843;44.728;10.396;2023-07-31T01:35:36;4.22;;;2.92;;
59052;SDS011;44843;44.728;10.396;2023-07-31T01:38:03;3.45;;;2.65;;
59052;SDS011;44843;44.728;10.396;2023-07-31T01:40:29;6.03;;;2.70;;
59052;SDS011;44843;44.728;10.396;2023-07-31T01:42:55;5.70;;;3.45;;
59052;SDS011;44843;44.728;10.396;2023-07-31T01:45:20;5.70;;;3.40;;
59052;SDS011;44843;44.728;10.396;2023-07-31T01:47:46;4.00;;;2.80;;
59052;SDS011;44843;44.728;10.396;2023-07-31T01:50:11;6.05;;;2.65;;
59052;SDS011;44843;44.728;10.396;2023-07-31T01:52:37;6.07;;;4.18;;
59052;SDS011;44843;44.728;10.396;2023-07-31T01:55:02;4.88;;;2.90;;
59052;SDS011;44843;44.728;10.396;2023-07-31T01:57:28;6.30;;;3.45;;
59052;SDS011;44843;44.728;10.396;2023-07-31T01:59:54;7.50;;;3.15;;
59052;SDS011;44843;44.728;10.396;2023-07-31T02:02:19;4.03;;;3.10;;
59052;SDS011;44843;44.728;10.396;2023-07-31T02:04:45;9.77;;;5.35;;
59052;SDS011;44843;44.728;10.396;2023-07-31T02:07:11;6.55;;;4.00;;
59052;SDS011;44843;44.728;10.396;2023-07-31T02:09:36;4.90;;;3.75;;
59052;SDS011;44843;44.728;10.396;2023-07-31T02:12:02;4.55;;;3.92;;
59052;SDS011;44843;44.728;10.396;2023-07-31T02:14:27;4.97;;;3.80;;
59052;SDS011;44843;44.728;10.396;2023-07-31T02:16:53;5.40;;;4.15;;
59052;SDS011;44843;44.728;10.396;2023-07-31T02:19:18;6.30;;;4.60;;
59052;SDS011;44843;44.728;10.396;2023-07-31T02:21:44;6.32;;;4.63;;
59052;SDS011;44843;44.728;10.396;2023-07-31T02:24:09;8.48;;;5.35;;
59052;SDS011;44843;44.728;10.396;2023-07-31T02:26:35;5.72;;;4.28;;
59052;SDS011;44843;44.728;10.396;2023-07-31T02:29:00;5.32;;;4.03;;
59052;SDS011;44843;44.728;10.396;2023-07-31T02:31:26;6.97;;;4.00;;
59052;SDS011;44843;44.728;10.396;2023-07-31T02:33:51;5.50;;;4.20;;
59052;SDS011;44843;44.728;10.396;2023-07-31T02:36:16;7.15;;;4.18;;
59052;SDS011;44843;44.728;10.396;2023-07-31T02:38:42;7.70;;;3.58;;
59052;SDS011;44843;44.728;10.396;2023-07-31T02:41:07;7.78;;;4.32;;
59052;SDS011;44843;44.728;10.396;2023-07-31T02:43:33;5.35;;;3.85;;
59052;SDS011;44843;44.728;10.396;2023-07-31T02:45:59;4.88;;;4.38;;
59052;SDS011;44843;44.728;10.396;2023-07-31T02:48:24;4.85;;;4.03;;
59052;SDS011;44843;44.728;10.396;2023-07-31T02:50:50;6.07;;;3.83;;
59052;SDS011;44843;44.728;10.396;2023-07-31T02:53:15;4.18;;;3.35;;
59052;SDS011;44843;44.728;10.396;2023-07-31T02:55:41;5.35;;;3.42;;
59052;SDS011;44843;44.728;10.396;2023-07-31T02:58:06;5.32;;;3.72;;
59052;SDS011;44843;44.728;10.396;2023-07-31T03:00:31;5.68;;;4.10;;
59052;SDS011;44843;44.728;10.396;2023-07-31T03:02:57;7.65;;;3.97;;
59052;SDS011;44843;44.728;10.396;2023-07-31T03:05:22;4.45;;;3.53;;
59052;SDS011;44843;44.728;10.396;2023-07-31T03:07:48;5.88;;;4.53;;
59052;SDS011;44843;44.728;10.396;2023-07-31T03:10:13;5.43;;;3.92;;
59052;SDS011;44843;44.728;10.396;2023-07-31T03:12:39;7.00;;;4.18;;
59052;SDS011;44843;44.728;10.396;2023-07-31T03:15:05;4.20;;;3.72;;
59052;SDS011;44843;44.728;10.396;2023-07-31T03:17:31;6.75;;;4.22;;
59052;SDS011;44843;44.728;10.396;2023-07-31T03:19:56;8.95;;;4.25;;
59052;SDS011;44843;44.728;10.396;2023-07-31T03:22:22;7.35;;;4.20;;
59052;SDS011;44843;44.728;10.396;2023-07-31T03:24:47;5.15;;;3.92;;
59052;SDS011;44843;44.728;10.396;2023-07-31T03:27:13;6.57;;;4.03;;
59052;SDS011;44843;44.728;10.396;2023-07-31T03:29:38;5.00;;;3.80;;
59052;SDS011;44843;44.728;10.396;2023-07-31T03:32:03;5.38;;;3.97;;
59052;SDS011;44843;44.728;10.396;2023-07-31T03:34:29;5.78;;;4.43;;
59052;SDS011;44843;44.728;10.396;2023-07-31T03:36:56;5.35;;;4.20;;
59052;SDS011;44843;44.728;10.396;2023-07-31T03:39:22;5.25;;;3.53;;
59052;SDS011;44843;44.728;10.396;2023-07-31T03:41:48;5.07;;;4.07;;
59052;SDS011;44843;44.728;10.396;2023-07-31T03:44:13;6.18;;;4.10;;
59052;SDS011;44843;44.728;10.396;2023-07-31T03:46:38;8.45;;;4.65;;
59052;SDS011;44843;44.728;10.396;2023-07-31T03:49:04;7.18;;;4.07;;
59052;SDS011;44843;44.728;10.396;2023-07-31T03:51:29;4.80;;;3.83;;
59052;SDS011;44843;44.728;10.396;2023-07-31T03:53:54;5.18;;;3.92;;
59052;SDS011;44843;44.728;10.396;2023-07-31T03:56:20;6.18;;;4.10;;
59052;SDS011;44843;44.728;10.396;2023-07-31T03:58:45;8.02;;;4.25;;
59052;SDS011;44843;44.728;10.396;2023-07-31T04:01:10;5.55;;;4.00;;
59052;SDS011;44843;44.728;10.396;2023-07-31T04:03:36;5.03;;;4.13;;
59052;SDS011;44843;44.728;10.396;2023-07-31T04:06:01;7.47;;;3.85;;
59052;SDS011;44843;44.728;10.396;2023-07-31T04:08:27;6.78;;;4.18;;
59052;SDS011;44843;44.728;10.396;2023-07-31T04:10:52;6.47;;;4.38;;
59052;SDS011;44843;44.728;10.396;2023-07-31T04:13:17;5.40;;;4.68;;
59052;SDS011;44843;44.728;10.396;2023-07-31T04:15:47;5.18;;;3.80;;
59052;SDS011;44843;44.728;10.396;2023-07-31T04:18:14;6.60;;;3.90;;
59052;SDS011;44843;44.728;10.396;2023-07-31T04:20:39;7.65;;;3.67;;
59052;SDS011;44843;44.728;10.396;2023-07-31T04:23:04;5.60;;;3.78;;
59052;SDS011;44843;44.728;10.396;2023-07-31T04:25:30;5.60;;;3.67;;
59052;SDS011;44843;44.728;10.396;2023-07-31T04:27:55;5.13;;;3.58;;
59052;SDS011;44843;44.728;10.396;2023-07-31T04:30:20;7.40;;;3.80;;
59052;SDS011;44843;44.728;10.396;2023-07-31T04:32:46;5.18;;;4.10;;
59052;SDS011;44843;44.728;10.396;2023-07-31T04:35:11;5.95;;;3.88;;
59052;SDS011;44843;44.728;10.396;2023-07-31T04:37:36;5.80;;;4.60;;
59052;SDS011;44843;44.728;10.396;2023-07-31T04:40:03;4.57;;;3.63;;
59052;SDS011;44843;44.728;10.396;2023-07-31T04:42:29;5.82;;;3.75;;
59052;SDS011;44843;44.728;10.396;2023-07-31T04:44:54;5.13;;;3.95;;
59052;SDS011;44843;44.728;10.396;2023-07-31T04:47:19;5.43;;;4.07;;
59052;SDS011;44843;44.728;10.396;2023-07-31T04:49:45;4.43;;;3.78;;
59052;SDS011;44843;44.728;10.396;2023-07-31T04:52:10;4.93;;;4.00;;
59052;SDS011;44843;44.728;10.396;2023-07-31T04:54:36;6.20;;;4.10;;
59052;SDS011;44843;44.728;10.396;2023-07-31T04:57:01;8.82;;;4.28;;
59052;SDS011;44843;44.728;10.396;2023-07-31T04:59:26;6.47;;;3.97;;
59052;SDS011;44843;44.728;10.396;2023-07-31T05:01:52;5.45;;;4.63;;
59052;SDS011;44843;44.728;10.396;2023-07-31T05:04:17;7.50;;;3.90;;
59052;SDS011;44843;44.728;10.396;2023-07-31T05:06:43;6.15;;;4.00;;
59052;SDS011;44843;44.728;10.396;2023-07-31T05:09:08;6.47;;;4.15;;
59052;SDS011;44843;44.728;10.396;2023-07-31T05:11:36;7.65;;;4.30;;
59052;SDS011;44843;44.728;10.396;2023-07-31T05:14:02;5.30;;;4.30;;
59052;SDS011;44843;44.728;10.396;2023-07-31T05:16:27;6.25;;;4.38;;
59052;SDS011;44843;44.728;10.396;2023-07-31T05:18:52;6.53;;;3.63;;
59052;SDS011;44843;44.728;10.396;2023-07-31T05:21:18;4.88;;;3.67;;
59052;SDS011;44843;44.728;10.396;2023-07-31T05:23:43;8.55;;;3.88;;
59052;SDS011;44843;44.728;10.396;2023-07-31T05:26:09;6.35;;;4.07;;
59052;SDS011;44843;44.728;10.396;2023-07-31T05:28:35;6.22;;;4.53;;
59052;SDS011;44843;44.728;10.396;2023-07-31T05:31:01;4.30;;;3.38;;
59052;SDS011;44843;44.728;10.396;2023-07-31T05:33:29;7.43;;;4.72;;
59052;SDS011;44843;44.728;10.396;2023-07-31T05:35:55;4.40;;;3.55;;
59052;SDS011;44843;44.728;10.396;2023-07-31T05:38:21;8.73;;;4.35;;
59052;SDS011;44843;44.728;10.396;2023-07-31T05:40:47;5.43;;;4.50;;
59052;SDS011;44843;44.728;10.396;2023-07-31T05:43:12;5.18;;;4.03;;
59052;SDS011;44843;44.728;10.396;2023-07-31T05:45:38;9.75;;;4.15;;
59052;SDS011;44843;44.728;10.396;2023-07-31T05:48:05;8.73;;;4.25;;
59052;SDS011;44843;44.728;10.396;2023-07-31T05:50:30;6.25;;;3.92;;
59052;SDS011;44843;44.728;10.396;2023-07-31T05:52:56;8.77;;;4.60;;
59052;SDS011;44843;44.728;10.396;2023-07-31T05:55:21;5.10;;;4.60;;
59052;SDS011;44843;44.728;10.396;2023-07-31T05:57:47;5.05;;;4.40;;
59052;SDS011;44843;44.728;10.396;2023-07-31T06:00:12;8.10;;;4.70;;
59052;SDS011;44843;44.728;10.396;2023-07-31T06:02:38;5.13;;;4.63;;
59052;SDS011;44843;44.728;10.396;2023-07-31T06:05:04;5.90;;;4.72;;
59052;SDS011;44843;44.728;10.396;2023-07-31T06:07:31;7.30;;;5.15;;
59052;SDS011;44843;44.728;10.396;2023-07-31T06:09:57;5.30;;;4.70;;
59052;SDS011;44843;44.728;10.396;2023-07-31T06:12:28;7.85;;;4.65;;
59052;SDS011;44843;44.728;10.396;2023-07-31T06:14:53;10.85;;;5.03;;
59052;SDS011;44843;44.728;10.396;2023-07-31T06:17:19;351.55;;;150.75;;
59052;SDS011;44843;44.728;10.396;2023-07-31T06:19:44;324.02;;;152.30;;
59052;SDS011;44843;44.728;10.396;2023-07-31T06:22:09;293.30;;;127.97;;
59052;SDS011;44843;44.728;10.396;2023-07-31T06:24:35;494.35;;;208.40;;
59052;SDS011;44843;44.728;10.396;2023-07-31T06:27:00;598.80;;;246.20;;
59052;SDS011;44843;44.728;10.396;2023-07-31T06:29:27;335.05;;;150.98;;
59052;SDS011;44843;44.728;10.396;2023-07-31T06:31:53;190.63;;;88.00;;
59052;SDS011;44843;44.728;10.396;2023-07-31T06:34:18;27.88;;;12.77;;
59052;SDS011;44843;44.728;10.396;2023-07-31T06:36:44;7.53;;;5.30;;
59052;SDS011;44843;44.728;10.396;2023-07-31T06:39:09;8.50;;;4.60;;
59052;SDS011;44843;44.728;10.396;2023-07-31T06:41:34;5.82;;;5.10;;
59052;SDS011;44843;44.728;10.396;2023-07-31T06:44:00;10.88;;;6.30;;
59052;SDS011;44843;44.728;10.396;2023-07-31T06:46:25;8.40;;;5.50;;
59052;SDS011;44843;44.728;10.396;2023-07-31T06:48:51;10.88;;;5.80;;
59052;SDS011;44843;44.728;10.396;2023-07-31T06:51:16;7.25;;;5.63;;
59052;SDS011;44843;44.728;10.396;2023-07-31T06:53:41;6.82;;;4.70;;
59052;SDS011;44843;44.728;10.396;2023-07-31T06:56:10;7.15;;;4.90;;
59052;SDS011;44843;44.728;10.396;2023-07-31T06:58:35;7.72;;;5.13;;
59052;SDS011;44843;44.728;10.396;2023-07-31T07:01:01;7.50;;;4.72;;
59052;SDS011;44843;44.728;10.396;2023-07-31T07:03:27;7.22;;;4.65;;
59052;SDS011;44843;44.728;10.396;2023-07-31T07:05:52;6.13;;;4.07;;
59052;SDS011;44843;44.728;10.396;2023-07-31T07:08:18;12.43;;;5.03;;
59052;SDS011;44843;44.728;10.396;2023-07-31T07:10:43;5.75;;;4.20;;
59052;SDS011;44843;44.728;10.396;2023-07-31T07:13:09;9.55;;;4.65;;
59052;SDS011;44843;44.728;10.396;2023-07-31T07:15:34;6.70;;;4.70;;
59052;SDS011;44843;44.728;10.396;2023-07-31T07:18:00;8.40;;;4.60;;
59052;SDS011;44843;44.728;10.396;2023-07-31T07:20:25;8.45;;;4.88;;
59052;SDS011;44843;44.728;10.396;2023-07-31T07:22:51;6.75;;;4.65;;
59052;SDS011;44843;44.728;10.396;2023-07-31T07:25:16;8.00;;;5.30;;
59052;SDS011;44843;44.728;10.396;2023-07-31T07:27:41;5.90;;;4.53;;
59052;SDS011;44843;44.728;10.396;2023-07-31T07:30:07;9.07;;;5.22;;
59052;SDS011;44843;44.728;10.396;2023-07-31T07:32:32;8.10;;;5.00;;
59052;SDS011;44843;44.728;10.396;2023-07-31T07:34:58;13.80;;;6.65;;
59052;SDS011;44843;44.728;10.396;2023-07-31T07:37:23;8.63;;;5.10;;
59052;SDS011;44843;44.728;10.396;2023-07-31T07:39:49;8.68;;;5.03;;
59052;SDS011;44843;44.728;10.396;2023-07-31T07:42:14;6.85;;;5.20;;
59052;SDS011;44843;44.728;10.396;2023-07-31T07:44:40;10.23;;;5.32;;
59052;SDS011;44843;44.728;10.396;2023-07-31T07:47:05;9.63;;;5.03;;
59052;SDS011;44843;44.728;10.396;2023-07-31T07:49:32;7.28;;;4.65;;
59052;SDS011;44843;44.728;10.396;2023-07-31T07:51:58;7.25;;;4.90;;
59052;SDS011;44843;44.728;10.396;2023-07-31T07:54:24;10.77;;;5.57;;
59052;SDS011;44843;44.728;10.396;2023-07-31T07:56:49;9.20;;;5.22;;
59052;SDS011;44843;44.728;10.396;2023-07-31T07:59:15;10.00;;;5.28;;
59052;SDS011;44843;44.728;10.396;2023-07-31T08:01:40;9.00;;;5.38;;
59052;SDS011;44843;44.728;10.396;2023-07-31T08:04:05;10.18;;;5.80;;
59052;SDS011;44843;44.728;10.396;2023-07-31T08:06:31;8.18;;;5.30;;
59052;SDS011;44843;44.728;10.396;2023-07-31T08:08:56;9.43;;;6.07;;
59052;SDS011;44843;44.728;10.396;2023-07-31T08:11:22;7.00;;;5.05;;
59052;SDS011;44843;44.728;10.396;2023-07-31T08:13:48;7.50;;;4.80;;
59052;SDS011;44843;44.728;10.396;2023-07-31T08:16:14;9.63;;;5.38;;
59052;SDS011;44843;44.728;10.396;2023-07-31T08:18:39;8.38;;;4.85;;
59052;SDS011;44843;44.728;10.396;2023-07-31T08:21:05;7.50;;;4.28;;
59052;SDS011;44843;44.728;10.396;2023-07-31T08:23:31;11.07;;;4.53;;
59052;SDS011;44843;44.728;10.396;2023-07-31T08:25:56;7.00;;;4.18;;
59052;SDS011;44843;44.728;10.396;2023-07-31T08:28:21;6.85;;;3.88;;
59052;SDS011;44843;44.728;10.396;2023-07-31T08:30:47;4.78;;;3.33;;
59052;SDS011;44843;44.728;10.396;2023-07-31T08:33:12;6.82;;;3.67;;
59052;SDS011;44843;44.728;10.396;2023-07-31T08:35:38;7.43;;;4.03;;
59052;SDS011;44843;44.728;10.396;2023-07-31T08:38:03;6.32;;;4.95;;
59052;SDS011;44843;44.728;10.396;2023-07-31T08:40:29;10.85;;;3.55;;
59052;SDS011;44843;44.728;10.396;2023-07-31T08:42:57;7.45;;;3.72;;
59052;SDS011;44843;44.728;10.396;2023-07-31T08:45:27;7.05;;;3.30;;
59052;SDS011;44843;44.728;10.396;2023-07-31T08:47:53;9.15;;;3.60;;
59052;SDS011;44843;44.728;10.396;2023-07-31T08:50:19;8.45;;;3.50;;
59052;SDS011;44843;44.728;10.396;2023-07-31T08:52:46;5.55;;;3.03;;
59052;SDS011;44843;44.728;10.396;2023-07-31T08:55:12;3.95;;;3.03;;
59052;SDS011;44843;44.728;10.396;2023-07-31T08:57:38;6.63;;;3.20;;
59052;SDS011;44843;44.728;10.396;2023-07-31T09:00:04;6.53;;;3.42;;
59052;SDS011;44843;44.728;10.396;2023-07-31T09:02:34;8.85;;;3.65;;
59052;SDS011;44843;44.728;10.396;2023-07-31T09:05:05;5.97;;;2.97;;
59052;SDS011;44843;44.728;10.396;2023-07-31T09:07:31;2.83;;;2.50;;
59052;SDS011;44843;44.728;10.396;2023-07-31T09:09:59;3.88;;;2.25;;
59052;SDS011;44843;44.728;10.396;2023-07-31T09:12:25;2.53;;;1.70;;
59052;SDS011;44843;44.728;10.396;2023-07-31T09:14:50;6.40;;;2.30;;
59052;SDS011;44843;44.728;10.396;2023-07-31T09:17:16;6.82;;;2.50;;
59052;SDS011;44843;44.728;10.396;2023-07-31T09:19:57;3.72;;;1.92;;
59052;SDS011;44843;44.728;10.396;2023-07-31T09:22:33;3.40;;;2.25;;
59052;SDS011;44843;44.728;10.396;2023-07-31T09:30:19;5.53;;;2.30;;
59052;SDS011;44843;44.728;10.396;2023-07-31T09:32:45;3.42;;;1.98;;
59052;SDS011;44843;44.728;10.396;2023-07-31T09:35:22;2.72;;;2.20;;
59052;SDS011;44843;44.728;10.396;2023-07-31T09:37:53;6.47;;;1.90;;
59052;SDS011;44843;44.728;10.396;2023-07-31T09:42:56;2.70;;;2.28;;
59052;SDS011;44843;44.728;10.396;2023-07-31T09:45:28;2.72;;;2.13;;
59052;SDS011;44843;44.728;10.396;2023-07-31T09:47:54;3.80;;;2.08;;
59052;SDS011;44843;44.728;10.396;2023-07-31T09:50:21;2.13;;;1.92;;
59052;SDS011;44843;44.728;10.396;2023-07-31T09:52:47;3.17;;;2.75;;
59052;SDS011;44843;44.728;10.396;2023-07-31T09:55:13;3.05;;;2.00;;
59052;SDS011;44843;44.728;10.396;2023-07-31T09:57:43;6.05;;;2.75;;
59052;SDS011;44843;44.728;10.396;2023-07-31T10:00:10;3.28;;;1.92;;
59052;SDS011;44843;44.728;10.396;2023-07-31T10:02:40;3.47;;;2.55;;
59052;SDS011;44843;44.728;10.396;2023-07-31T10:05:06;2.90;;;2.47;;
59052;SDS011;44843;44.728;10.396;2023-07-31T10:07:42;3.60;;;2.50;;
59052;SDS011;44843;44.728;10.396;2023-07-31T10:10:15;3.38;;;2.42;;
59052;SDS011;44843;44.728;10.396;2023-07-31T10:12:41;3.75;;;2.45;;
59052;SDS011;44843;44.728;10.396;2023-07-31T10:15:08;3.28;;;2.20;;
59052;SDS011;44843;44.728;10.396;2023-07-31T10:17:35;3.08;;;2.35;;
59052;SDS011;44843;44.728;10.396;2023-07-31T10:20:02;3.40;;;2.30;;
59052;SDS011;44843;44.728;10.396;2023-07-31T10:22:30;3.05;;;2.30;;
59052;SDS011;44843;44.728;10.396;2023-07-31T10:25:00;3.70;;;2.80;;
59052;SDS011;44843;44.728;10.396;2023-07-31T10:27:26;3.60;;;2.60;;
59052;SDS011;44843;44.728;10.396;2023-07-31T10:29:52;2.72;;;2.53;;
59052;SDS011;44843;44.728;10.396;2023-07-31T10:32:19;6.57;;;3.00;;
59052;SDS011;44843;44.728;10.396;2023-07-31T10:34:46;3.75;;;2.45;;
59052;SDS011;44843;44.728;10.396;2023-07-31T10:37:19;3.88;;;2.60;;
59052;SDS011;44843;44.728;10.396;2023-07-31T10:39:57;3.38;;;2.67;;
59052;SDS011;44843;44.728;10.396;2023-07-31T10:48:02;6.18;;;2.80;;
59052;SDS011;44843;44.728;10.396;2023-07-31T10:50:29;2.67;;;2.45;;
59052;SDS011;44843;44.728;10.396;2023-07-31T10:52:57;5.40;;;3.20;;
59052;SDS011;44843;44.728;10.396;2023-07-31T10:57:57;3.88;;;2.38;;
59052;SDS011;44843;44.728;10.396;2023-07-31T11:00:30;5.68;;;2.88;;
59052;SDS011;44843;44.728;10.396;2023-07-31T11:03:00;4.28;;;3.03;;
59052;SDS011;44843;44.728;10.396;2023-07-31T11:05:42;18.48;;;4.82;;
59052;SDS011;44843;44.728;10.396;2023-07-31T11:10:37;2.67;;;2.45;;
59052;SDS011;44843;44.728;10.396;2023-07-31T11:13:06;3.90;;;2.63;;
59052;SDS011;44843;44.728;10.396;2023-07-31T11:15:31;2.92;;;2.58;;
59052;SDS011;44843;44.728;10.396;2023-07-31T11:17:57;3.35;;;3.05;;
59052;SDS011;44843;44.728;10.396;2023-07-31T11:20:25;4.85;;;2.55;;
59052;SDS011;44843;44.728;10.396;2023-07-31T11:22:50;4.40;;;2.92;;
59052;SDS011;44843;44.728;10.396;2023-07-31T11:25:16;3.15;;;2.42;;
59052;SDS011;44843;44.728;10.396;2023-07-31T11:27:42;3.20;;;2.58;;
59052;SDS011;44843;44.728;10.396;2023-07-31T11:30:09;5.35;;;2.47;;
59052;SDS011;44843;44.728;10.396;2023-07-31T11:32:38;2.83;;;2.50;;
59052;SDS011;44843;44.728;10.396;2023-07-31T11:35:03;3.03;;;2.03;;
59052;SDS011;44843;44.728;10.396;2023-07-31T11:37:43;5.85;;;2.95;;
59052;SDS011;44843;44.728;10.396;2023-07-31T11:40:09;2.90;;;2.40;;
59052;SDS011;44843;44.728;10.396;2023-07-31T11:42:35;3.63;;;3.20;;
59052;SDS011;44843;44.728;10.396;2023-07-31T11:45:02;3.25;;;2.20;;
59052;SDS011;44843;44.728;10.396;2023-07-31T11:47:29;2.53;;;2.33;;
59052;SDS011;44843;44.728;10.396;2023-07-31T11:49:55;5.07;;;2.58;;
59052;SDS011;44843;44.728;10.396;2023-07-31T11:52:21;2.72;;;2.53;;
59052;SDS011;44843;44.728;10.396;2023-07-31T11:54:48;3.75;;;2.45;;
59052;SDS011;44843;44.728;10.396;2023-07-31T11:57:14;3.45;;;2.67;;
59052;SDS011;44843;44.728;10.396;2023-07-31T11:59:40;2.63;;;2.40;;
59052;SDS011;44843;44.728;10.396;2023-07-31T12:02:06;2.92;;;2.60;;
59052;SDS011;44843;44.728;10.396;2023-07-31T12:04:32;2.88;;;2.28;;
59052;SDS011;44843;44.728;10.396;2023-07-31T12:06:59;4.80;;;2.65;;
59052;SDS011;44843;44.728;10.396;2023-07-31T12:09:25;2.80;;;2.45;;
59052;SDS011;44843;44.728;10.396;2023-07-31T12:11:51;3.78;;;2.75;;
59052;SDS011;44843;44.728;10.396;2023-07-31T12:14:23;4.20;;;2.40;;
59052;SDS011;44843;44.728;10.396;2023-07-31T12:17:00;3.22;;;2.40;;
59052;SDS011;44843;44.728;10.396;2023-07-31T12:19:29;2.88;;;2.58;;
59052;SDS011;44843;44.728;10.396;2023-07-31T12:21:58;3.42;;;2.17;;
59052;SDS011;44843;44.728;10.396;2023-07-31T12:24:25;2.95;;;2.65;;
59052;SDS011;44843;44.728;10.396;2023-07-31T12:26:51;2.53;;;2.17;;
59052;SDS011;44843;44.728;10.396;2023-07-31T12:29:17;3.10;;;2.40;;
59052;SDS011;44843;44.728;10.396;2023-07-31T12:31:43;3.13;;;2.45;;
59052;SDS011;44843;44.728;10.396;2023-07-31T12:34:18;3.42;;;2.25;;
59052;SDS011;44843;44.728;10.396;2023-07-31T12:36:46;3.50;;;2.22;;
59052;SDS011;44843;44.728;10.396;2023-07-31T12:39:14;3.83;;;2.33;;
59052;SDS011;44843;44.728;10.396;2023-07-31T12:41:40;5.65;;;2.70;;
59052;SDS011;44843;44.728;10.396;2023-07-31T12:44:05;3.80;;;2.72;;
59052;SDS011;44843;44.728;10.396;2023-07-31T12:46:31;4.95;;;2.55;;
59052;SDS011;44843;44.728;10.396;2023-07-31T12:48:56;3.78;;;2.55;;
59052;SDS011;44843;44.728;10.396;2023-07-31T12:51:21;3.58;;;2.40;;
59052;SDS011;44843;44.728;10.396;2023-07-31T12:53:47;3.53;;;2.60;;
59052;SDS011;44843;44.728;10.396;2023-07-31T12:56:12;6.32;;;2.53;;
59052;SDS011;44843;44.728;10.396;2023-07-31T12:58:38;3.03;;;2.13;;
59052;SDS011;44843;44.728;10.396;2023-07-31T13:01:03;6.05;;;2.35;;
59052;SDS011;44843;44.728;10.396;2023-07-31T13:03:28;5.63;;;2.60;;
59052;SDS011;44843;44.728;10.396;2023-07-31T13:05:54;3.55;;;2.55;;
59052;SDS011;44843;44.728;10.396;2023-07-31T13:08:20;3.50;;;2.30;;
59052;SDS011;44843;44.728;10.396;2023-07-31T13:10:45;5.78;;;2.92;;
59052;SDS011;44843;44.728;10.396;2023-07-31T13:13:11;7.75;;;3.75;;
59052;SDS011;44843;44.728;10.396;2023-07-31T13:15:36;3.60;;;2.30;;
59052;SDS011;44843;44.728;10.396;2023-07-31T13:18:02;5.63;;;2.67;;
59052;SDS011;44843;44.728;10.396;2023-07-31T13:20:27;2.60;;;2.30;;
59052;SDS011;44843;44.728;10.396;2023-07-31T13:22:52;2.60;;;2.40;;
59052;SDS011;44843;44.728;10.396;2023-07-31T13:25:18;2.90;;;2.40;;
59052;SDS011;44843;44.728;10.396;2023-07-31T13:27:43;2.97;;;2.50;;
59052;SDS011;44843;44.728;10.396;2023-07-31T13:30:09;5.07;;;2.50;;
59052;SDS011;44843;44.728;10.396;2023-07-31T13:32:34;3.50;;;2.67;;
59052;SDS011;44843;44.728;10.396;2023-07-31T13:35:03;3.75;;;2.70;;
59052;SDS011;44843;44.728;10.396;2023-07-31T13:37:33;3.90;;;2.63;;
59052;SDS011;44843;44.728;10.396;2023-07-31T13:39:58;4.32;;;2.28;;
59052;SDS011;44843;44.728;10.396;2023-07-31T13:42:24;4.38;;;2.60;;
59052;SDS011;44843;44.728;10.396;2023-07-31T13:44:49;2.92;;;2.40;;
59052;SDS011;44843;44.728;10.396;2023-07-31T13:47:15;4.30;;;2.30;;
59052;SDS011;44843;44.728;10.396;2023-07-31T13:49:40;5.47;;;2.67;;
59052;SDS011;44843;44.728;10.396;2023-07-31T13:52:06;5.03;;;2.50;;
59052;SDS011;44843;44.728;10.396;2023-07-31T13:54:32;4.53;;;2.60;;
59052;SDS011;44843;44.728;10.396;2023-07-31T13:56:57;3.13;;;2.83;;
59052;SDS011;44843;44.728;10.396;2023-07-31T13:59:23;3.88;;;2.25;;
59052;SDS011;44843;44.728;10.396;2023-07-31T14:01:48;5.68;;;2.80;;
59052;SDS011;44843;44.728;10.396;2023-07-31T14:04:15;4.32;;;2.63;;
59052;SDS011;44843;44.728;10.396;2023-07-31T14:06:42;2.95;;;2.42;;
59052;SDS011;44843;44.728;10.396;2023-07-31T14:09:08;5.13;;;2.90;;
59052;SDS011;44843;44.728;10.396;2023-07-31T14:11:33;3.47;;;2.67;;
59052;SDS011;44843;44.728;10.396;2023-07-31T14:13:59;3.92;;;2.55;;
59052;SDS011;44843;44.728;10.396;2023-07-31T14:16:26;2.60;;;2.40;;
59052;SDS011;44843;44.728;10.396;2023-07-31T14:18:52;2.90;;;2.53;;
59052;SDS011;44843;44.728;10.396;2023-07-31T14:21:18;6.72;;;2.60;;
59052;SDS011;44843;44.728;10.396;2023-07-31T14:23:44;3.20;;;2.22;;
59052;SDS011;44843;44.728;10.396;2023-07-31T14:26:10;4.20;;;2.55;;
59052;SDS011;44843;44.728;10.396;2023-07-31T14:28:35;3.72;;;2.40;;
59052;SDS011;44843;44.728;10.396;2023-07-31T14:31:01;3.33;;;2.28;;
59052;SDS011;44843;44.728;10.396;2023-07-31T14:33:26;2.35;;;2.15;;
59052;SDS011;44843;44.728;10.396;2023-07-31T14:35:51;2.45;;;2.20;;
59052;SDS011;44843;44.728;10.396;2023-07-31T14:38:17;4.30;;;2.60;;
59052;SDS011;44843;44.728;10.396;2023-07-31T14:40:42;3.45;;;2.50;;
59052;SDS011;44843;44.728;10.396;2023-07-31T14:43:08;2.85;;;2.25;;
59052;SDS011;44843;44.728;10.396;2023-07-31T14:45:33;3.15;;;2.60;;
59052;SDS011;44843;44.728;10.396;2023-07-31T14:47:59;3.00;;;2.70;;
59052;SDS011;44843;44.728;10.396;2023-07-31T14:50:25;3.47;;;2.30;;
59052;SDS011;44843;44.728;10.396;2023-07-31T14:52:50;4.18;;;2.42;;
59052;SDS011;44843;44.728;10.396;2023-07-31T14:55:16;3.20;;;2.55;;
59052;SDS011;44843;44.728;10.396;2023-07-31T14:57:43;4.97;;;2.70;;